Time;durP1;ratioP1;P1;durP2;ratioP2;P2;SDS_P1;SDS_P2;PMS_P1;PMS_P2;Temp;Humidity;BMP_temperature;BMP_pressure;BME280_temperature;BME280_humidity;BME280_pressure;Samples;Min_cycle;Max_cycle;Signal;HPM_P1;HPM_P2
2023/05/03 00:00:08;;;;;;;14.30;12.50;;;5.00;75.10;;;;;;4976117;28;20213;-84
2023/05/03 00:02:37;;;;;;;16.83;13.10;;;5.00;76.00;;;;;;4977632;28;20540;-84
2023/05/03 00:05:03;;;;;;;28.57;25.70;;;5.10;75.70;;;;;;4977145;28;20645;-84
2023/05/03 00:07:29;;;;;;;27.13;24.83;;;5.10;75.60;;;;;;4975999;28;20213;-84
2023/05/03 00:09:54;;;;;;;27.50;25.40;;;5.10;76.00;;;;;;4977427;28;20653;-84
2023/05/03 00:12:20;;;;;;;26.13;24.00;;;5.10;75.90;;;;;;4975890;28;20190;-84
2023/05/03 00:14:45;;;;;;;13.97;12.47;;;5.10;75.60;;;;;;4977006;28;20185;-84
2023/05/03 00:17:11;;;;;;;16.30;12.30;;;5.20;75.70;;;;;;4975873;28;20198;-84
2023/05/03 00:19:38;;;;;;;13.20;12.00;;;5.20;75.90;;;;;;4975693;28;20183;-84
2023/05/03 00:22:04;;;;;;;13.43;12.23;;;5.20;75.70;;;;;;4977027;28;20181;-84
2023/05/03 00:24:29;;;;;;;13.37;12.07;;;5.10;75.50;;;;;;4991870;28;20182;-84
2023/05/03 00:26:55;;;;;;;13.20;11.90;;;5.10;75.20;;;;;;4975445;28;20297;-84
2023/05/03 00:29:21;;;;;;;12.97;11.87;;;5.00;75.30;;;;;;4977114;28;20648;-84
2023/05/03 00:31:47;;;;;;;13.90;12.57;;;5.00;75.20;;;;;;4976656;28;20186;-84
2023/05/03 00:34:13;;;;;;;12.70;11.67;;;5.00;75.40;;;;;;4975449;28;20225;-84
2023/05/03 00:36:39;;;;;;;14.40;12.90;;;5.00;75.60;;;;;;4976663;28;20612;-84
2023/05/03 00:39:04;;;;;;;13.80;11.77;;;4.90;76.30;;;;;;4975386;28;20206;-84
2023/05/03 00:41:30;;;;;;;12.23;11.43;;;5.00;76.90;;;;;;4975374;28;20175;-84
2023/05/03 00:43:55;;;;;;;11.17;10.00;;;4.90;77.20;;;;;;4976623;28;20532;-84
2023/05/03 00:46:21;;;;;;;14.80;11.47;;;4.90;77.10;;;;;;4975201;28;20213;-84
2023/05/03 00:48:50;;;;;;;12.10;10.80;;;4.90;77.10;;;;;;4976407;28;20171;-84
2023/05/03 00:51:17;;;;;;;11.40;10.50;;;4.80;77.30;;;;;;4974822;28;20232;-85
2023/05/03 00:53:43;;;;;;;10.80;9.70;;;4.80;77.30;;;;;;4976925;28;20185;-84
2023/05/03 00:56:10;;;;;;;12.97;11.50;;;4.80;77.60;;;;;;4975690;28;20648;-85
2023/05/03 00:58:38;;;;;;;11.97;10.90;;;4.80;77.70;;;;;;4975182;28;20198;-84
2023/05/03 01:01:07;;;;;;;11.60;10.60;;;4.80;77.60;;;;;;4975235;28;20294;-84
2023/05/03 01:03:36;;;;;;;13.17;11.83;;;4.80;77.40;;;;;;4975270;28;20190;-84
2023/05/03 01:06:32;;;;;;;12.40;11.20;;;4.80;77.50;;;;;;4976386;28;20226;-85
2023/05/03 01:09:18;;;;;;;10.73;9.70;;;4.70;79.00;;;;;;4991448;28;20177;-85
2023/05/03 01:12:14;;;;;;;11.93;9.57;;;4.70;80.20;;;;;;4976383;28;20205;-85
2023/05/03 01:15:04;;;;;;;10.47;9.67;;;4.70;80.80;;;;;;4954866;28;20217;-85
2023/05/03 01:17:54;;;;;;;9.93;8.20;;;4.70;81.10;;;;;;4991031;28;20209;-85
2023/05/03 01:20:25;;;;;;;11.83;8.20;;;4.60;81.60;;;;;;4975537;28;20272;-85
2023/05/03 01:22:57;;;;;;;8.97;7.80;;;4.50;82.30;;;;;;4974629;28;20174;-85
2023/05/03 01:25:22;;;;;;;10.70;7.60;;;4.50;82.40;;;;;;4975692;28;20185;-85
2023/05/03 01:27:48;;;;;;;12.23;7.30;;;4.50;82.90;;;;;;4974341;28;20210;-85
2023/05/03 01:30:14;;;;;;;11.63;7.87;;;4.50;83.40;;;;;;4974345;28;20301;-85
2023/05/03 01:32:47;;;;;;;7.60;7.00;;;4.50;83.80;;;;;;4975500;28;20217;-85
2023/05/03 01:35:39;;;;;;;14.43;7.27;;;4.60;83.80;;;;;;4975496;28;20181;-84
2023/05/03 01:38:05;;;;;;;9.87;7.33;;;4.60;83.60;;;;;;4974289;28;20202;-84
2023/05/03 01:40:37;;;;;;;8.13;7.43;;;4.60;83.50;;;;;;4975406;28;20679;-85
2023/05/03 01:43:03;;;;;;;9.57;7.63;;;4.70;83.70;;;;;;4974163;28;20185;-84
2023/05/03 01:45:29;;;;;;;9.53;6.37;;;4.80;83.60;;;;;;4974163;28;20302;-84
2023/05/03 01:47:55;;;;;;;9.80;7.30;;;4.80;83.40;;;;;;4973948;28;20233;-85
2023/05/03 01:50:22;;;;;;;19.43;17.87;;;4.80;83.20;;;;;;4974069;28;20182;-85
2023/05/03 01:52:51;;;;;;;17.70;15.83;;;4.80;83.00;;;;;;4974098;28;20184;-84
2023/05/03 01:55:17;;;;;;;20.30;18.60;;;4.90;83.30;;;;;;4973893;28;20262;-84
2023/05/03 01:57:42;;;;;;;20.40;18.77;;;4.90;83.30;;;;;;4973856;28;20244;-84
2023/05/03 02:00:08;;;;;;;16.27;14.90;;;4.90;83.30;;;;;;4975118;28;20554;-85
2023/05/03 02:02:34;;;;;;;11.47;7.90;;;5.00;83.10;;;;;;4975004;28;20178;-84
2023/05/03 02:04:59;;;;;;;14.33;8.60;;;5.00;83.20;;;;;;4973775;28;20201;-84
2023/05/03 02:07:25;;;;;;;19.17;17.20;;;5.00;83.40;;;;;;4974827;28;20217;-85
2023/05/03 02:09:51;;;;;;;18.50;16.67;;;5.00;83.60;;;;;;4973734;28;20330;-84
2023/05/03 02:12:16;;;;;;;18.30;16.47;;;5.10;84.00;;;;;;4973651;28;20181;-84
2023/05/03 02:14:42;;;;;;;17.53;16.00;;;5.20;84.30;;;;;;4973633;28;20243;-84
2023/05/03 02:17:07;;;;;;;9.43;7.30;;;5.20;84.50;;;;;;4973870;28;20569;-84
2023/05/03 02:19:33;;;;;;;8.13;7.27;;;5.30;84.40;;;;;;4973647;28;20645;-84
2023/05/03 02:21:59;;;;;;;10.73;8.20;;;5.50;84.50;;;;;;4973503;28;20261;-84
2023/05/03 02:24:24;;;;;;;15.50;7.50;;;5.50;84.20;;;;;;4974785;28;20527;-84
2023/05/03 02:26:50;;;;;;;13.33;8.40;;;5.50;84.00;;;;;;4973244;28;20218;-84
2023/05/03 02:29:15;;;;;;;8.93;8.10;;;5.60;84.00;;;;;;4974533;28;20174;-84
2023/05/03 02:31:41;;;;;;;9.93;8.33;;;5.60;83.90;;;;;;4973248;28;20182;-84
2023/05/03 02:34:07;;;;;;;10.53;8.57;;;5.70;84.00;;;;;;4974314;28;20174;-84
2023/05/03 02:36:32;;;;;;;11.03;8.40;;;5.80;83.90;;;;;;4974430;28;20723;-85
2023/05/03 02:38:58;;;;;;;9.37;8.40;;;5.70;83.70;;;;;;4973291;28;20175;-84
2023/05/03 02:41:23;;;;;;;16.50;8.90;;;5.80;83.70;;;;;;4973246;28;20225;-84
2023/05/03 02:43:49;;;;;;;9.83;7.83;;;5.80;83.60;;;;;;4973216;28;20645;-84
2023/05/03 02:46:14;;;;;;;10.17;7.87;;;5.90;83.90;;;;;;4974198;28;20268;-84
2023/05/03 02:48:40;;;;;;;12.37;7.97;;;5.90;83.90;;;;;;4974350;28;20171;-84
2023/05/03 02:51:05;;;;;;;15.23;8.60;;;5.80;83.90;;;;;;4974806;28;20640;-84
2023/05/03 02:53:31;;;;;;;9.70;8.40;;;5.70;83.80;;;;;;4974359;28;20175;-85
2023/05/03 02:55:56;;;;;;;10.30;7.73;;;5.80;83.90;;;;;;4973159;28;20185;-84
2023/05/03 02:58:22;;;;;;;9.57;8.30;;;5.80;84.10;;;;;;4974347;28;20205;-84
2023/05/03 03:00:47;;;;;;;9.67;8.07;;;5.70;84.30;;;;;;4973131;28;20222;-85
2023/05/03 03:03:13;;;;;;;9.20;8.50;;;5.80;84.60;;;;;;4973836;28;20182;-84
2023/05/03 03:05:38;;;;;;;12.50;8.37;;;5.80;84.60;;;;;;4974524;28;20171;-84
2023/05/03 03:08:04;;;;;;;12.50;8.90;;;5.80;84.40;;;;;;4989204;28;20198;-84
2023/05/03 03:10:30;;;;;;;8.53;7.60;;;5.80;84.30;;;;;;4989387;28;20527;-85
2023/05/03 03:12:55;;;;;;;12.93;8.13;;;5.80;84.20;;;;;;4975521;28;20226;-84
2023/05/03 03:15:21;;;;;;;9.00;8.20;;;5.90;84.30;;;;;;4977072;28;20170;-84
2023/05/03 03:17:46;;;;;;;11.67;8.77;;;5.90;84.30;;;;;;4976910;28;20250;-84
2023/05/03 03:20:12;;;;;;;11.70;8.87;;;5.90;84.30;;;;;;4978064;28;20189;-84
2023/05/03 03:22:38;;;;;;;9.40;8.30;;;5.90;84.40;;;;;;4976688;28;20564;-84
2023/05/03 03:25:05;;;;;;;9.17;8.27;;;5.90;84.30;;;;;;4976684;28;20663;-85
2023/05/03 03:27:31;;;;;;;10.53;8.30;;;6.00;84.30;;;;;;4977962;28;20210;-84
2023/05/03 03:29:57;;;;;;;11.37;8.50;;;6.00;84.10;;;;;;4976592;28;20525;-84
2023/05/03 03:32:22;;;;;;;13.70;7.80;;;5.90;84.30;;;;;;4977793;28;20570;-84
2023/05/03 03:34:48;;;;;;;9.83;8.20;;;6.00;84.50;;;;;;4977894;28;20175;-84
2023/05/03 03:37:13;;;;;;;9.93;8.30;;;6.00;84.50;;;;;;4977827;28;20195;-84
2023/05/03 03:39:39;;;;;;;9.30;8.03;;;6.00;84.70;;;;;;4976511;28;20530;-84
2023/05/03 03:42:09;;;;;;;11.53;7.53;;;6.00;84.90;;;;;;4976452;28;20273;-84
2023/05/03 03:44:34;;;;;;;9.20;8.30;;;6.00;85.10;;;;;;4976389;28;20234;-84
2023/05/03 03:47:00;;;;;;;12.87;8.43;;;6.10;85.40;;;;;;4977455;28;20212;-84
2023/05/03 03:49:26;;;;;;;17.53;15.90;;;6.10;85.50;;;;;;4976214;28;20233;-84
2023/05/03 03:51:51;;;;;;;19.10;17.47;;;6.10;85.60;;;;;;4976230;28;20557;-84
2023/05/03 03:54:16;;;;;;;19.47;17.73;;;6.20;85.60;;;;;;4977447;28;20171;-83
2023/05/03 03:56:42;;;;;;;18.53;17.03;;;6.30;85.40;;;;;;4992253;28;20288;-84
2023/05/03 03:59:08;;;;;;;18.33;16.93;;;6.30;85.30;;;;;;4976175;28;20244;-84
2023/05/03 04:01:33;;;;;;;17.57;15.30;;;6.20;85.20;;;;;;4976079;28;20183;-84
2023/05/03 04:03:59;;;;;;;16.60;15.00;;;6.20;85.20;;;;;;4977283;28;20183;-84
2023/05/03 04:06:25;;;;;;;15.63;14.17;;;6.20;85.30;;;;;;4977086;28;20672;-84
2023/05/03 04:08:51;;;;;;;11.37;8.97;;;6.20;85.20;;;;;;4977159;28;20182;-84
2023/05/03 04:11:17;;;;;;;9.67;8.77;;;6.30;85.00;;;;;;4977168;28;20659;-84
2023/05/03 04:13:42;;;;;;;17.93;15.87;;;6.20;85.00;;;;;;4977135;28;20539;-84
2023/05/03 04:16:08;;;;;;;16.03;14.60;;;6.30;84.90;;;;;;4975821;28;20201;-84
2023/05/03 04:18:33;;;;;;;18.70;14.77;;;6.30;84.80;;;;;;4977124;28;20217;-84
2023/05/03 04:20:59;;;;;;;16.47;14.70;;;6.20;84.50;;;;;;4975797;28;20557;-84
2023/05/03 04:23:25;;;;;;;9.47;8.57;;;6.10;84.30;;;;;;4975731;28;20221;-84
2023/05/03 04:25:51;;;;;;;12.07;8.13;;;6.10;84.30;;;;;;4974345;28;20190;-84
2023/05/03 04:28:17;;;;;;;18.93;7.60;;;6.20;84.40;;;;;;4975658;28;20286;-84
2023/05/03 04:30:46;;;;;;;9.80;8.60;;;6.20;84.40;;;;;;4976799;28;20178;-84
2023/05/03 04:33:12;;;;;;;13.77;8.10;;;6.20;84.30;;;;;;4975490;28;20269;-84
2023/05/03 04:35:38;;;;;;;9.60;8.77;;;6.20;84.20;;;;;;4976717;28;20198;-84
2023/05/03 04:38:03;;;;;;;9.20;8.33;;;6.20;84.10;;;;;;4976600;28;20688;-84
2023/05/03 04:40:29;;;;;;;10.67;7.80;;;6.30;84.00;;;;;;4976563;28;20206;-84
2023/05/03 04:42:56;;;;;;;9.17;8.37;;;6.30;84.00;;;;;;4975424;28;20217;-84
2023/05/03 04:45:22;;;;;;;10.40;8.03;;;6.40;84.20;;;;;;4977111;28;20174;-84
2023/05/03 04:47:48;;;;;;;15.53;6.80;;;6.40;84.30;;;;;;4975076;28;20591;-84
2023/05/03 04:50:13;;;;;;;11.60;7.37;;;6.40;84.80;;;;;;4975174;28;20175;-84
2023/05/03 04:52:39;;;;;;;10.80;8.00;;;6.50;84.90;;;;;;4975145;28;20182;-84
2023/05/03 04:55:05;;;;;;;13.03;7.40;;;6.50;84.90;;;;;;4976398;28;20245;-84
2023/05/03 04:57:33;;;;;;;13.53;7.33;;;6.50;84.90;;;;;;4975128;28;20202;-84
2023/05/03 04:59:59;;;;;;;16.20;7.90;;;6.60;85.00;;;;;;4975010;28;20185;-84
2023/05/03 05:02:25;;;;;;;10.77;7.97;;;6.70;85.10;;;;;;4975000;28;20178;-84
2023/05/03 05:04:51;;;;;;;10.37;7.27;;;6.70;85.10;;;;;;4975203;28;20174;-85
2023/05/03 05:07:17;;;;;;;13.20;8.07;;;6.70;85.30;;;;;;4976042;28;20209;-84
2023/05/03 05:09:42;;;;;;;14.03;8.13;;;6.80;85.30;;;;;;4976229;28;20171;-84
2023/05/03 05:12:08;;;;;;;9.57;7.33;;;6.80;85.30;;;;;;4974826;28;20206;-84
2023/05/03 05:14:34;;;;;;;10.97;7.50;;;6.90;85.30;;;;;;4976489;28;20530;-84
2023/05/03 05:17:00;;;;;;;11.90;7.33;;;6.90;85.20;;;;;;4974627;28;20194;-84
2023/05/03 05:19:26;;;;;;;9.50;7.77;;;6.90;85.00;;;;;;4974941;28;20189;-84
2023/05/03 05:21:52;;;;;;;13.20;7.57;;;7.00;84.90;;;;;;4976162;28;20175;-84
2023/05/03 05:24:17;;;;;;;13.23;6.70;;;7.10;84.90;;;;;;4975949;28;20676;-85
2023/05/03 05:26:43;;;;;;;8.47;6.60;;;7.10;84.80;;;;;;4974560;28;20275;-84
2023/05/03 05:29:09;;;;;;;10.57;7.23;;;7.20;84.50;;;;;;4974721;28;20174;-85
2023/05/03 05:31:35;;;;;;;7.20;6.50;;;7.20;83.80;;;;;;4975751;28;20198;-84
2023/05/03 05:34:01;;;;;;;9.40;7.20;;;7.20;83.60;;;;;;4974683;28;20174;-84
2023/05/03 05:36:27;;;;;;;15.27;13.93;;;7.30;83.50;;;;;;4990191;28;20553;-84
2023/05/03 05:38:52;;;;;;;14.93;13.50;;;7.30;83.30;;;;;;4974472;28;20183;-85
2023/05/03 05:41:18;;;;;;;15.40;13.80;;;7.40;83.00;;;;;;4974454;28;20610;-85
2023/05/03 05:43:44;;;;;;;14.53;13.20;;;7.50;82.70;;;;;;4975633;28;20637;-84
2023/05/03 05:46:10;;;;;;;14.70;13.20;;;7.50;82.30;;;;;;4975524;28;20249;-84
2023/05/03 05:48:35;;;;;;;14.73;13.10;;;7.60;82.00;;;;;;4975485;28;20195;-85
2023/05/03 05:51:01;;;;;;;15.63;14.03;;;7.60;81.60;;;;;;4974576;28;20181;-84
2023/05/03 05:53:27;;;;;;;7.37;6.73;;;7.60;81.00;;;;;;4975448;28;20167;-84
2023/05/03 05:55:53;;;;;;;12.07;7.30;;;7.70;80.80;;;;;;4974026;28;20604;-85
2023/05/03 05:58:18;;;;;;;14.87;13.57;;;7.70;80.60;;;;;;4975296;28;20190;-85
2023/05/03 06:00:44;;;;;;;15.33;13.93;;;7.80;79.90;;;;;;4974129;28;20229;-84
2023/05/03 06:03:09;;;;;;;14.90;13.67;;;7.80;79.50;;;;;;4975445;28;20182;-85
2023/05/03 06:05:35;;;;;;;15.40;14.10;;;7.80;79.10;;;;;;4974051;28;20178;-85
2023/05/03 06:08:01;;;;;;;7.67;6.07;;;7.90;78.70;;;;;;4973937;28;20232;-84
2023/05/03 06:10:26;;;;;;;23.97;6.27;;;7.90;78.60;;;;;;4973883;28;20641;-85
2023/05/03 06:12:52;;;;;;;6.33;5.70;;;8.00;78.10;;;;;;4974087;28;20186;-84
2023/05/03 06:15:17;;;;;;;12.10;5.93;;;8.00;77.80;;;;;;4990088;28;20174;-84
2023/05/03 06:17:44;;;;;;;11.07;6.50;;;8.20;77.90;;;;;;4975035;28;20190;-85
2023/05/03 06:20:10;;;;;;;11.33;5.70;;;8.30;78.00;;;;;;4973798;28;20540;-85
2023/05/03 06:22:36;;;;;;;9.87;6.20;;;8.30;77.40;;;;;;4973577;28;20185;-84
2023/05/03 06:25:02;;;;;;;6.47;5.70;;;8.20;76.40;;;;;;4974762;28;20205;-84
2023/05/03 06:27:28;;;;;;;8.50;6.00;;;8.30;76.30;;;;;;4974626;28;20234;-84
2023/05/03 06:29:53;;;;;;;8.40;6.47;;;8.30;75.80;;;;;;4989594;28;20262;-83
2023/05/03 06:32:20;;;;;;;6.97;6.13;;;8.50;75.90;;;;;;4974507;28;20233;-83
2023/05/03 06:34:49;;;;;;;11.40;7.07;;;8.60;75.80;;;;;;4973567;28;20178;-85
2023/05/03 06:37:15;;;;;;;7.67;5.90;;;8.70;75.20;;;;;;4974702;28;20281;-85
2023/05/03 06:39:41;;;;;;;9.63;7.10;;;8.80;74.50;;;;;;4973779;28;20182;-83
2023/05/03 06:42:07;;;;;;;9.63;8.70;;;8.80;73.70;;;;;;4973587;28;20171;-84
2023/05/03 06:44:32;;;;;;;9.87;8.90;;;8.90;71.60;;;;;;4974914;28;20189;-85
2023/05/03 06:46:58;;;;;;;11.63;8.90;;;8.90;70.80;;;;;;4972989;28;20708;-84
2023/05/03 06:49:23;;;;;;;12.70;10.40;;;9.00;71.40;;;;;;4972779;28;20237;-85
2023/05/03 06:51:49;;;;;;;12.70;11.40;;;9.10;69.10;;;;;;4974417;28;20182;-84
2023/05/03 06:54:14;;;;;;;18.30;11.43;;;9.20;68.40;;;;;;4973187;28;20225;-84
2023/05/03 06:56:40;;;;;;;14.33;11.40;;;9.20;68.40;;;;;;4974537;28;20204;-84
2023/05/03 06:59:07;;;;;;;12.47;11.57;;;9.30;68.30;;;;;;4973337;28;20593;-85
2023/05/03 07:01:33;;;;;;;12.40;11.40;;;9.30;68.40;;;;;;4974456;28;20185;-85
2023/05/03 07:03:58;;;;;;;13.90;12.70;;;9.40;68.20;;;;;;4974627;28;20175;-85
2023/05/03 07:06:24;;;;;;;15.23;13.93;;;9.50;66.50;;;;;;4973694;28;20207;-84
2023/05/03 07:08:51;;;;;;;15.30;14.00;;;9.60;64.70;;;;;;4974516;28;20174;-85
2023/05/03 07:11:17;;;;;;;16.00;14.60;;;9.60;65.40;;;;;;4973207;28;20225;-85
2023/05/03 07:13:42;;;;;;;15.47;14.27;;;9.60;65.00;;;;;;4989249;28;20186;-85
2023/05/03 07:16:08;;;;;;;23.40;21.87;;;9.70;65.20;;;;;;4973658;28;20233;-85
2023/05/03 07:18:33;;;;;;;23.93;22.17;;;9.80;64.60;;;;;;4972844;28;20687;-84
2023/05/03 07:21:04;;;;;;;24.40;22.50;;;9.80;63.10;;;;;;4974204;28;20187;-85
2023/05/03 07:23:30;;;;;;;25.03;23.37;;;9.70;63.30;;;;;;4973020;28;20175;-85
2023/05/03 07:25:58;;;;;;;22.90;21.17;;;9.80;63.10;;;;;;4972789;28;20202;-83
2023/05/03 07:28:23;;;;;;;22.93;21.17;;;9.90;62.70;;;;;;4973153;28;20265;-84
2023/05/03 07:30:50;;;;;;;13.90;12.70;;;9.90;63.30;;;;;;4973234;28;20664;-84
2023/05/03 07:33:15;;;;;;;15.10;13.93;;;9.90;62.20;;;;;;4974312;28;20660;-85
2023/05/03 07:35:41;;;;;;;22.77;21.13;;;10.00;64.20;;;;;;4974231;28;20175;-84
2023/05/03 07:38:06;;;;;;;23.90;21.97;;;9.60;64.60;;;;;;4972960;28;20313;-84
2023/05/03 07:40:32;;;;;;;21.60;19.60;;;9.70;64.50;;;;;;4972807;28;20182;-84
2023/05/03 07:43:00;;;;;;;19.97;18.57;;;9.90;64.60;;;;;;4973998;28;20708;-84
2023/05/03 07:45:26;;;;;;;13.47;12.47;;;10.00;63.50;;;;;;4974117;28;20686;-85
2023/05/03 07:47:52;;;;;;;14.30;13.27;;;10.00;62.50;;;;;;4972619;28;20297;-84
2023/05/03 07:50:18;;;;;;;14.60;13.17;;;10.00;63.20;;;;;;4973804;28;20185;-84
2023/05/03 07:52:43;;;;;;;13.63;12.73;;;10.00;62.50;;;;;;4972808;28;20553;-84
2023/05/03 07:55:09;;;;;;;14.47;13.23;;;10.00;61.70;;;;;;4973031;28;20185;-85
2023/05/03 07:57:35;;;;;;;14.17;12.97;;;10.10;63.10;;;;;;4974239;28;20203;-85
2023/05/03 08:00:03;;;;;;;13.70;12.70;;;10.20;62.20;;;;;;4976705;28;20209;-85
2023/05/03 08:02:28;;;;;;;14.03;12.80;;;10.30;62.10;;;;;;4978804;28;20614;-85
2023/05/03 08:04:54;;;;;;;13.80;12.80;;;10.30;62.30;;;;;;4993990;28;20193;-85
2023/05/03 08:07:20;;;;;;;14.07;12.90;;;10.20;62.40;;;;;;4976993;28;20253;-85
2023/05/03 08:09:47;;;;;;;14.00;12.77;;;10.40;62.90;;;;;;4976837;28;20186;-85
2023/05/03 08:12:13;;;;;;;14.60;13.50;;;10.30;61.70;;;;;;4976767;28;20270;-85
2023/05/03 08:14:39;;;;;;;13.80;12.53;;;10.40;61.50;;;;;;4976607;28;20202;-85
2023/05/03 08:17:05;;;;;;;13.50;12.50;;;10.50;60.50;;;;;;4976521;28;20257;-85
2023/05/03 08:19:30;;;;;;;13.37;12.07;;;10.50;60.50;;;;;;4977515;28;20268;-85
2023/05/03 08:21:57;;;;;;;13.77;12.50;;;10.40;59.40;;;;;;4977367;28;20178;-85
2023/05/03 08:24:22;;;;;;;13.57;12.40;;;10.30;60.00;;;;;;4977411;28;20182;-84
2023/05/03 08:26:49;;;;;;;13.10;12.20;;;10.40;59.40;;;;;;4975746;28;20215;-85
2023/05/03 08:29:15;;;;;;;13.87;12.60;;;10.10;60.20;;;;;;4977008;28;20182;-85
2023/05/03 08:31:41;;;;;;;13.07;11.77;;;10.10;61.60;;;;;;4975930;28;20261;-85
2023/05/03 08:34:09;;;;;;;13.63;12.63;;;10.20;61.30;;;;;;4976540;28;20213;-85
2023/05/03 08:36:36;;;;;;;12.63;11.83;;;10.10;61.30;;;;;;4975865;28;20201;-84
2023/05/03 08:39:06;;;;;;;13.17;12.17;;;10.30;61.40;;;;;;4975798;28;20249;-85
2023/05/03 08:41:32;;;;;;;13.90;12.90;;;10.50;58.20;;;;;;4977146;28;20185;-85
2023/05/03 08:43:59;;;;;;;13.47;12.40;;;10.50;58.20;;;;;;4976911;28;20175;-85
2023/05/03 08:46:25;;;;;;;15.83;14.00;;;10.50;59.60;;;;;;4976945;28;20199;-85
2023/05/03 08:48:53;;;;;;;14.43;13.30;;;10.50;59.90;;;;;;4975515;28;20175;-85
2023/05/03 08:51:20;;;;;;;13.50;12.30;;;10.40;61.10;;;;;;4975737;28;20183;-85
2023/05/03 08:53:46;;;;;;;19.07;17.60;;;10.10;62.40;;;;;;4975779;28;20182;-85
2023/05/03 08:56:24;;;;;;;20.57;19.03;;;10.30;63.20;;;;;;4975453;28;20603;-85
2023/05/03 08:58:49;;;;;;;20.13;18.57;;;10.40;62.90;;;;;;4976542;28;20170;-85
2023/05/03 09:01:15;;;;;;;19.73;18.23;;;10.50;61.70;;;;;;4975243;28;20179;-85
2023/05/03 09:03:49;;;;;;;20.73;18.97;;;10.40;61.50;;;;;;4975218;28;20209;-85
2023/05/03 09:06:25;;;;;;;13.97;12.87;;;10.40;62.50;;;;;;4975102;28;20214;-85
2023/05/03 09:08:51;;;;;;;13.00;11.80;;;10.40;62.20;;;;;;4975412;28;20205;-85
2023/05/03 09:11:23;;;;;;;12.77;11.67;;;10.30;62.40;;;;;;4975746;28;20211;-85
2023/05/03 09:13:51;;;;;;;19.90;18.40;;;10.50;60.50;;;;;;4975065;28;20386;-85
2023/05/03 09:16:26;;;;;;;19.43;17.97;;;10.70;60.90;;;;;;4974923;28;20183;-84
2023/05/03 09:19:03;;;;;;;19.40;17.90;;;10.40;60.90;;;;;;4976576;28;20185;-85
2023/05/03 09:21:32;;;;;;;12.93;11.93;;;10.20;60.30;;;;;;4975576;28;20641;-84
2023/05/03 09:23:58;;;;;;;13.60;12.37;;;10.00;59.00;;;;;;4975262;28;20179;-84
2023/05/03 09:26:28;;;;;;;13.50;12.70;;;10.20;60.00;;;;;;4975112;28;20696;-84
2023/05/03 09:28:55;;;;;;;13.10;12.00;;;10.30;60.30;;;;;;4976804;28;20175;-85
2023/05/03 09:31:21;;;;;;;13.70;12.50;;;10.50;57.60;;;;;;4975408;28;20560;-85
2023/05/03 09:33:46;;;;;;;13.20;12.00;;;10.70;57.10;;;;;;4977406;28;20191;-85
2023/05/03 09:36:12;;;;;;;13.00;11.90;;;10.90;56.20;;;;;;4974808;28;20257;-85
2023/05/03 09:38:37;;;;;;;13.83;12.83;;;11.30;57.20;;;;;;4975886;28;20178;-85
2023/05/03 09:41:06;;;;;;;13.03;12.00;;;11.40;57.10;;;;;;4974521;28;20194;-85
2023/05/03 09:43:32;;;;;;;13.70;12.47;;;11.60;56.20;;;;;;4975859;28;20183;-85
2023/05/03 09:46:11;;;;;;;13.53;12.43;;;11.70;58.60;;;;;;4974624;28;20190;-85
2023/05/03 09:48:38;;;;;;;13.43;12.37;;;11.80;57.50;;;;;;4975922;28;20261;-85
2023/05/03 09:51:04;;;;;;;14.43;13.13;;;11.30;58.00;;;;;;4974691;28;20253;-85
2023/05/03 09:53:32;;;;;;;15.13;12.37;;;11.60;58.90;;;;;;4976312;28;20178;-85
2023/05/03 09:56:00;;;;;;;13.23;11.67;;;11.50;56.70;;;;;;4975936;28;20171;-85
2023/05/03 09:58:29;;;;;;;14.33;12.97;;;11.50;56.40;;;;;;4974480;28;20199;-85
2023/05/03 10:00:55;;;;;;;13.70;12.60;;;11.80;58.20;;;;;;4974868;28;20237;-85
2023/05/03 10:03:49;;;;;;;14.30;13.13;;;11.80;55.50;;;;;;4974749;28;20206;-84
2023/05/03 10:06:20;;;;;;;14.97;13.73;;;11.70;57.10;;;;;;4974117;28;20218;-85
2023/05/03 10:08:52;;;;;;;13.67;12.60;;;11.90;55.20;;;;;;4975446;28;20154;-85
2023/05/03 10:11:18;;;;;;;13.33;12.30;;;11.80;54.10;;;;;;4975560;28;20155;-85
2023/05/03 10:13:44;;;;;;;13.50;12.60;;;11.70;56.20;;;;;;4973876;28;20202;-85
2023/05/03 10:16:16;;;;;;;13.30;12.50;;;11.30;55.60;;;;;;4975834;28;20192;-85
2023/05/03 10:19:06;;;;;;;14.47;13.27;;;11.80;57.30;;;;;;4990713;28;20553;-85
2023/05/03 10:21:55;;;;;;;14.33;13.30;;;11.90;58.20;;;;;;4975889;28;20162;-85
2023/05/03 10:24:21;;;;;;;14.53;13.37;;;11.50;56.70;;;;;;4973769;28;20167;-84
2023/05/03 10:26:49;;;;;;;15.87;14.50;;;11.60;55.10;;;;;;4973687;28;20217;-85
2023/05/03 10:29:33;;;;;;;20.90;19.40;;;11.30;55.50;;;;;;4973778;28;20183;-85
2023/05/03 10:32:00;;;;;;;20.73;19.13;;;11.30;56.00;;;;;;4974815;28;20261;-84
2023/05/03 10:34:31;;;;;;;21.27;19.77;;;11.20;55.90;;;;;;4974674;28;20159;-85
2023/05/03 10:37:01;;;;;;;19.50;17.93;;;11.80;57.50;;;;;;4974797;28;20195;-86
2023/05/03 10:39:27;;;;;;;20.03;18.43;;;12.20;55.10;;;;;;4973446;28;20174;-85
2023/05/03 10:42:02;;;;;;;13.97;13.00;;;12.30;54.80;;;;;;4973550;28;20190;-85
2023/05/03 10:44:49;;;;;;;14.67;13.57;;;12.30;54.00;;;;;;4975036;28;20163;-84
2023/05/03 10:47:17;;;;;;;21.23;19.77;;;12.30;54.80;;;;;;4973541;28;20207;-85
2023/05/03 10:49:43;;;;;;;21.57;19.77;;;12.70;53.60;;;;;;4973460;28;20175;-85
2023/05/03 10:52:37;;;;;;;21.07;19.57;;;13.00;52.20;;;;;;4974195;28;20534;-85
2023/05/03 10:55:08;;;;;;;21.20;19.40;;;13.20;50.60;;;;;;4989345;28;20171;-85
2023/05/03 10:57:34;;;;;;;16.10;14.90;;;13.20;49.00;;;;;;4989666;28;20760;-85
2023/05/03 11:00:01;;;;;;;13.40;12.60;;;13.20;50.00;;;;;;4974519;28;20318;-85
2023/05/03 11:02:32;;;;;;;14.83;13.60;;;12.90;53.70;;;;;;4973210;28;20183;-85
2023/05/03 11:05:03;;;;;;;13.37;12.53;;;13.60;52.00;;;;;;4973436;28;20657;-85
2023/05/03 11:07:30;;;;;;;14.40;13.30;;;13.80;51.70;;;;;;4973055;28;20231;-85
2023/05/03 11:09:56;;;;;;;14.87;13.77;;;14.00;50.90;;;;;;4974471;28;20697;-85
2023/05/03 11:12:21;;;;;;;14.93;13.83;;;13.80;50.80;;;;;;4974695;28;20274;-85
2023/05/03 11:14:49;;;;;;;16.27;14.87;;;13.40;51.80;;;;;;4974310;28;20185;-85
2023/05/03 11:17:15;;;;;;;15.75;14.20;;;13.40;51.00;;;;;;4973105;28;20202;-86
2023/05/03 11:19:43;;;;;;;15.17;13.90;;;13.40;52.10;;;;;;4974588;28;20186;-86
2023/05/03 11:22:08;;;;;;;15.50;14.30;;;13.00;52.30;;;;;;4973410;28;20187;-84
2023/05/03 11:24:34;;;;;;;16.67;15.17;;;12.80;52.90;;;;;;4973010;28;20650;-85
2023/05/03 11:27:00;;;;;;;15.40;14.30;;;13.00;53.20;;;;;;4974337;28;20219;-85
2023/05/03 11:29:26;;;;;;;15.80;14.40;;;13.30;51.30;;;;;;4973446;28;20207;-85
2023/05/03 11:31:51;;;;;;;15.80;14.40;;;13.30;51.30;;;;;;4973823;28;20709;-85
2023/05/03 11:34:17;;;;;;;15.47;14.23;;;13.30;49.70;;;;;;4974728;28;20198;-85
2023/05/03 11:36:43;;;;;;;16.07;14.70;;;13.20;49.10;;;;;;4977549;28;20607;-85
2023/05/03 11:39:11;;;;;;;17.37;15.80;;;13.00;50.50;;;;;;4978389;28;20179;-84
2023/05/03 11:41:37;;;;;;;16.50;15.30;;;12.60;51.60;;;;;;4980281;28;20277;-85
2023/05/03 11:44:03;;;;;;;16.27;15.00;;;12.70;52.90;;;;;;4979126;28;20213;-85
2023/05/03 11:46:33;;;;;;;16.13;15.03;;;13.30;54.00;;;;;;4978142;28;20214;-85
2023/05/03 11:49:00;;;;;;;16.73;15.43;;;13.40;51.90;;;;;;4977979;28;20183;-85
2023/05/03 11:51:26;;;;;;;16.40;15.03;;;13.40;51.80;;;;;;4979537;28;20198;-84
2023/05/03 11:53:52;;;;;;;16.53;15.23;;;13.40;52.40;;;;;;4980326;28;20175;-85
2023/05/03 11:56:19;;;;;;;17.30;15.90;;;13.40;51.00;;;;;;4978708;28;20179;-84
2023/05/03 11:58:54;;;;;;;16.40;15.05;;;14.10;50.70;;;;;;4978662;28;20245;-85
2023/05/03 12:01:22;;;;;;;16.35;15.15;;;14.60;49.60;;;;;;4978073;28;20178;-85
2023/05/03 12:03:55;;;;;;;18.10;16.70;;;14.60;49.10;;;;;;4979161;28;20174;-85
2023/05/03 12:06:21;;;;;;;22.58;20.58;;;15.00;50.50;;;;;;4979176;28;20274;-84
2023/05/03 12:08:47;;;;;;;22.75;20.75;;;15.20;48.50;;;;;;4979908;28;20261;-85
2023/05/03 12:11:12;;;;;;;21.98;20.23;;;15.40;47.50;;;;;;4979018;28;20392;-85
2023/05/03 12:13:38;;;;;;;21.85;20.25;;;14.60;49.10;;;;;;4976036;28;20170;-85
2023/05/03 12:16:05;;;;;;;21.20;19.70;;;14.20;49.60;;;;;;4976060;28;20191;-86
2023/05/03 12:18:49;;;;;;;16.25;14.88;;;14.30;50.80;;;;;;4977754;28;20205;-84
2023/05/03 12:21:15;;;;;;;15.55;14.45;;;14.10;52.00;;;;;;4978078;28;20181;-84
2023/05/03 12:23:41;;;;;;;22.20;20.60;;;14.60;50.60;;;;;;4978659;28;20175;-85
2023/05/03 12:26:06;;;;;;;23.38;21.75;;;14.80;49.60;;;;;;4994083;28;20175;-85
2023/05/03 12:28:32;;;;;;;22.95;21.17;;;14.40;50.60;;;;;;4979006;28;20199;-84
2023/05/03 12:30:58;;;;;;;22.20;20.70;;;15.00;49.50;;;;;;4978135;28;20203;-84
2023/05/03 12:33:24;;;;;;;15.60;14.60;;;14.80;50.20;;;;;;4979401;28;20678;-84
2023/05/03 12:35:50;;;;;;;15.27;14.07;;;14.80;51.00;;;;;;4977620;28;20177;-84
2023/05/03 12:38:15;;;;;;;16.02;14.57;;;15.50;47.90;;;;;;4977215;28;20199;-84